Málaga, Espanja

7. heinäkuuta 2015 klo 04:28 (CEST) (GMT +0200)
IALALHAU2 | | Change Station
CLOSE
Current Station
Omat sääasemat
Location: Alhaurin De La Torre, Malaga
Korkeus: 360 ft
Lähimmät sääasemat
Varoitus tällä hetkellä: Extreme high temperature

Kork 360 ft 36.66 °N, 4.55 °W | Updated 7 minutes ago

Clear
Selkeää
77.5 °F
Tuntuu kuin 78 °F
N
2.0
Tuuli Suunnaltaan vaihteleva Tuuli ilmansuunnasta Etelän ja lounaan välinen
Gusts 3.6 mph

Tänään
Korkea -- | Matala -- °F
--% Sateen mahd.
Eilen
Korkea -- | Matala -- °F
Precip. -- tuumaa
7:05 AM 9:39 PM
Vähenevä kupera kuu, 70% visible
Ilmanpaine 30.04 tuumaa
Näkyvyys -9999.0 mailia
Pilviä
Lämpötilaindeksi 78 °F
Kastepiste 45 °F
Ilmankosteus 33%
Sademäärä -999.00 tuumaa
Lumensyvyys Ei saatavilla
UV Ei saatavilla
Pollen Ei saatavilla
Ilmanlaatu Ei saatavilla
Flu Activity Ei saatavilla
METAR LEMG 070200Z 28003KT CAVOK 23/16 Q1017 NOSIG

More Conditions Fewer Conditions

Ilmanpaine 30.04 tuumaa
Näkyvyys -9999.0 mailia
Pilviä
Lämpötilaindeksi 78 °F
Kastepiste 45 °F
Ilmankosteus 33%
Sademäärä -999.00 tuumaa
Lumensyvyys Ei saatavilla
UV Ei saatavilla
Pollen Ei saatavilla
Ilmanlaatu Ei saatavilla
Flu Activity Ei saatavilla
METAR LEMG 070200Z 28003KT CAVOK 23/16 Q1017 NOSIG

More Conditions Fewer Conditions

10-Day Weather Forecast

×

Almanac

Tähtitiede

Jul. 07, 2015 Nousuaika Laskuaika
Valoisa aika
Porvarillinen hämärä
Nauttinen hämärä
Astronominen hämärä
Kuu
Näkyvän valon pituus
Päivän pituus
Tomorrow will be .
, % of the Moon is Illuminated

Tämän päivän ennätykset

Country Highs Country Lows

Community

WunderPhotos

Upload Photos

1,835,692 photos uploaded!

WunderBlogs® & News

Nearby

Ilmanlaatu

  Ilmanlaatu AQ Index Pollutant
Not available.

Lumensyvyys

Station Depth Korkeus

Maanjäristysaktiivisuus

Paikkakunta Distance Mag. Time & Date
Minimum magnitude displayed is 2.5.

Coastal Water Temperatures

Paikka Lämpötila

Stations

Lähimmät sääasemat

Aseman sijainti Lämpötila Tuulen hyytävyys Kastepiste Ilmankosteus Tuuli Precip. Kork Päivitetty Tyyppi